createdAt,value
2022-11-10T00:01:18.681Z,13.59
2022-11-10T00:03:45.501Z,13.62
2022-11-10T00:06:12.347Z,13.60
2022-11-10T00:08:39.126Z,13.54
2022-11-10T00:11:07.634Z,13.51
2022-11-10T00:13:56.366Z,13.45
2022-11-10T00:16:41.671Z,13.51
2022-11-10T00:19:08.531Z,13.53
2022-11-10T00:21:36.607Z,13.55
2022-11-10T00:24:04.123Z,13.55
2022-11-10T00:26:30.966Z,13.56
2022-11-10T00:28:57.731Z,13.49
2022-11-10T00:31:24.512Z,13.57
2022-11-10T00:33:51.353Z,13.48
2022-11-10T00:36:18.126Z,13.55
2022-11-10T00:38:45.010Z,13.54
2022-11-10T00:41:11.862Z,13.56
2022-11-10T00:43:38.652Z,13.51
2022-11-10T00:46:05.624Z,13.48
2022-11-10T00:48:32.399Z,13.56
2022-11-10T00:50:59.510Z,13.53
2022-11-10T00:53:26.292Z,13.55
2022-11-10T00:55:53.143Z,13.54
2022-11-10T00:58:19.966Z,13.53
2022-11-10T01:00:46.882Z,13.55
2022-11-10T01:03:16.061Z,13.47
2022-11-10T01:05:44.157Z,13.49
2022-11-10T01:08:11.532Z,13.37
2022-11-10T01:10:38.390Z,13.44
2022-11-10T01:13:05.207Z,13.39
2022-11-10T01:15:31.994Z,13.39
2022-11-10T01:17:58.814Z,13.48
2022-11-10T01:20:25.986Z,13.48
2022-11-10T01:22:52.770Z,13.48
2022-11-10T01:25:19.722Z,13.42
2022-11-10T01:27:46.603Z,13.40
2022-11-10T01:30:13.545Z,13.46
2022-11-10T01:32:40.851Z,13.47
2022-11-10T01:35:08.225Z,13.46
2022-11-10T01:37:35.046Z,13.43
2022-11-10T01:40:01.952Z,13.30
2022-11-10T01:43:01.221Z,13.42
2022-11-10T01:45:44.709Z,13.45
2022-11-10T01:48:22.180Z,13.46
2022-11-10T01:50:49.507Z,13.43
2022-11-10T01:53:24.378Z,13.36
2022-11-10T01:55:52.615Z,13.43
2022-11-10T01:58:26.627Z,13.43
2022-11-10T02:00:54.116Z,13.42
2022-11-10T02:03:53.056Z,13.40
2022-11-10T02:06:25.224Z,13.40
2022-11-10T02:08:53.872Z,13.39
2022-11-10T02:11:21.446Z,13.35
2022-11-10T02:13:48.868Z,13.38
2022-11-10T02:16:15.894Z,13.36
2022-11-10T02:18:42.650Z,13.33
2022-11-10T02:21:09.981Z,13.34
2022-11-10T02:23:36.883Z,13.34
2022-11-10T02:26:06.461Z,13.35
2022-11-10T02:28:38.058Z,13.27
2022-11-10T02:31:05.977Z,13.35
2022-11-10T02:33:32.799Z,13.31
2022-11-10T02:35:59.588Z,13.31
2022-11-10T02:38:26.502Z,13.29
2022-11-10T02:40:53.293Z,13.26
2022-11-10T02:43:20.494Z,13.21
2022-11-10T02:45:47.668Z,13.15
2022-11-10T02:48:16.025Z,13.14
2022-11-10T02:50:43.138Z,13.16
2022-11-10T02:53:10.318Z,13.14
2022-11-10T02:55:37.107Z,13.13
2022-11-10T02:58:04.067Z,13.13
2022-11-10T03:00:31.044Z,13.09
2022-11-10T03:03:01.220Z,13.08
2022-11-10T03:05:29.661Z,13.07
2022-11-10T03:08:00.304Z,13.08
2022-11-10T03:10:28.830Z,12.99
2022-11-10T03:13:01.608Z,12.96
2022-11-10T03:15:29.391Z,12.89
2022-11-10T03:17:56.708Z,12.96
2022-11-10T03:20:23.693Z,12.88
2022-11-10T03:22:50.475Z,12.97
2022-11-10T03:25:17.246Z,12.85
2022-11-10T03:27:44.105Z,12.85
2022-11-10T03:30:11.259Z,12.86
2022-11-10T03:32:38.035Z,12.77
2022-11-10T03:35:05.011Z,12.80
2022-11-10T03:37:31.898Z,12.74
2022-11-10T03:39:58.667Z,12.78
2022-11-10T03:42:25.475Z,12.70
2022-11-10T03:44:52.350Z,12.71
2022-11-10T03:47:19.215Z,12.70
2022-11-10T03:49:46.063Z,12.67
2022-11-10T03:52:12.849Z,12.64
2022-11-10T03:54:39.636Z,12.67
2022-11-10T03:57:06.445Z,12.59
2022-11-10T03:59:33.219Z,12.58
2022-11-10T04:02:00.322Z,12.57
2022-11-10T04:04:45.569Z,12.56
2022-11-10T04:07:32.453Z,12.55
2022-11-10T04:09:59.214Z,12.55
2022-11-10T04:12:44.440Z,12.44
2022-11-10T04:15:31.502Z,12.44
2022-11-10T04:18:17.014Z,12.31
2022-11-10T04:20:44.271Z,12.41
2022-11-10T04:23:30.387Z,12.40
2022-11-10T04:26:23.785Z,12.36
2022-11-10T04:28:54.399Z,12.25
2022-11-10T04:31:22.843Z,12.30
2022-11-10T04:33:50.850Z,12.22
2022-11-10T04:36:23.869Z,12.19
2022-11-10T04:38:51.232Z,12.23
2022-11-10T04:41:18.709Z,12.15
2022-11-10T04:43:45.490Z,12.21
2022-11-10T04:46:30.643Z,12.18
2022-11-10T04:48:58.264Z,12.11
2022-11-10T04:51:29.665Z,12.09
2022-11-10T04:53:56.865Z,12.11
2022-11-10T04:56:25.298Z,12.11
2022-11-10T04:58:54.854Z,12.04
2022-11-10T05:01:26.145Z,12.01
2022-11-10T05:03:53.781Z,12.00
2022-11-10T05:06:20.923Z,11.93
2022-11-10T05:08:47.879Z,11.97
2022-11-10T05:11:15.251Z,11.99
2022-11-10T05:13:43.288Z,11.95
2022-11-10T05:16:10.932Z,11.91
2022-11-10T05:18:38.018Z,11.83
2022-11-10T05:21:04.895Z,11.77
2022-11-10T05:23:41.683Z,11.76
2022-11-10T05:26:17.080Z,11.74
2022-11-10T05:28:45.903Z,11.65
2022-11-10T05:31:13.398Z,11.64
2022-11-10T05:33:40.188Z,11.64
2022-11-10T05:36:08.023Z,11.68
2022-11-10T05:38:38.855Z,11.62
2022-11-10T05:41:07.236Z,11.53
2022-11-10T05:43:34.034Z,11.56
2022-11-10T05:46:00.901Z,11.44
2022-11-10T05:48:27.705Z,11.42
2022-11-10T05:50:54.489Z,11.42
2022-11-10T05:53:21.566Z,11.40
2022-11-10T05:55:48.578Z,11.34
2022-11-10T05:58:15.662Z,11.33
2022-11-10T06:00:42.468Z,11.26
2022-11-10T06:03:20.083Z,11.23
2022-11-10T06:05:47.451Z,11.29
2022-11-10T06:08:14.786Z,11.27
2022-11-10T06:10:41.609Z,11.17
2022-11-10T06:13:08.494Z,11.18
2022-11-10T06:15:35.380Z,11.18
2022-11-10T06:18:02.505Z,11.19
2022-11-10T06:20:29.540Z,11.12
2022-11-10T06:23:06.237Z,11.21
2022-11-10T06:25:35.999Z,11.16
2022-11-10T06:28:04.301Z,11.13
2022-11-10T06:30:33.480Z,11.13
2022-11-10T06:33:00.494Z,11.07
2022-11-10T06:35:28.065Z,11.10
2022-11-10T06:38:03.678Z,11.06
2022-11-10T06:40:32.068Z,11.06
2022-11-10T06:42:59.555Z,11.02
2022-11-10T06:45:28.380Z,10.96
2022-11-10T06:48:08.061Z,11.04
2022-11-10T06:50:35.200Z,11.05
2022-11-10T06:53:02.753Z,11.08
2022-11-10T06:55:30.452Z,11.07
2022-11-10T06:57:57.616Z,10.98
2022-11-10T07:00:26.521Z,11.18
2022-11-10T07:03:05.052Z,11.12
2022-11-10T07:05:34.878Z,11.18
2022-11-10T07:08:16.251Z,11.02
2022-11-10T07:10:45.446Z,11.07
2022-11-10T07:13:12.575Z,11.02
2022-11-10T07:15:39.370Z,11.04
2022-11-10T07:18:06.176Z,11.08
2022-11-10T07:20:33.026Z,11.13
2022-11-10T07:23:05.548Z,11.22
2022-11-10T07:25:37.373Z,11.10
2022-11-10T07:28:07.856Z,11.21
2022-11-10T07:30:36.134Z,11.24
2022-11-10T07:33:10.346Z,11.26
2022-11-10T07:35:37.847Z,11.31
2022-11-10T07:38:07.875Z,11.15
2022-11-10T07:40:35.138Z,11.29
2022-11-10T07:43:02.418Z,11.28
2022-11-10T07:45:29.882Z,11.29
2022-11-10T07:48:05.787Z,11.31
2022-11-10T07:50:35.749Z,11.26
2022-11-10T07:53:08.514Z,11.35
2022-11-10T07:55:37.509Z,11.43
2022-11-10T07:58:05.335Z,11.41
2022-11-10T08:00:33.183Z,11.41
2022-11-10T08:03:08.358Z,11.42
2022-11-10T08:05:35.751Z,11.41
2022-11-10T08:08:03.230Z,11.45
2022-11-10T08:10:31.598Z,11.44
2022-11-10T08:13:01.158Z,11.46
2022-11-10T08:15:29.668Z,11.49
2022-11-10T08:18:14.302Z,11.50
2022-11-10T08:20:42.051Z,11.46
2022-11-10T08:23:09.262Z,11.54
2022-11-10T08:25:37.640Z,11.56
2022-11-10T08:28:11.179Z,11.58
2022-11-10T08:30:40.558Z,11.61
2022-11-10T08:33:10.253Z,11.58
2022-11-10T08:35:41.563Z,11.60
2022-11-10T08:38:14.057Z,11.65
2022-11-10T08:40:41.507Z,11.67
2022-11-10T08:43:09.538Z,11.71
2022-11-10T08:45:39.534Z,11.70
2022-11-10T08:48:09.906Z,11.66
2022-11-10T08:50:37.628Z,11.73
2022-11-10T08:53:07.679Z,11.71
2022-11-10T08:55:34.680Z,11.83
2022-11-10T08:58:04.073Z,11.82
2022-11-10T09:00:32.821Z,11.86
2022-11-10T09:05:42.734Z,11.90
2022-11-10T09:08:10.525Z,11.91
2022-11-10T09:10:41.880Z,11.85
2022-11-10T09:13:10.183Z,11.94
2022-11-10T09:15:37.333Z,11.95
2022-11-10T09:18:06.649Z,12.00
2022-11-10T09:20:36.245Z,12.06
2022-11-10T09:23:18.193Z,12.03
2022-11-10T09:25:51.266Z,12.09
2022-11-10T09:28:19.793Z,12.10
2022-11-10T09:30:48.866Z,12.11
2022-11-10T09:33:16.731Z,12.18
2022-11-10T09:35:43.562Z,12.16
2022-11-10T09:38:11.768Z,12.21
2022-11-10T09:41:23.756Z,12.16
2022-11-10T09:44:16.502Z,12.17
2022-11-10T09:46:58.441Z,12.21
2022-11-10T09:49:49.504Z,12.23
2022-11-10T09:52:18.000Z,12.28
2022-11-10T09:55:19.013Z,12.30
2022-11-10T09:57:49.115Z,12.31
2022-11-10T10:00:18.254Z,12.32
2022-11-10T10:02:57.993Z,12.39
2022-11-10T10:05:47.891Z,12.41
2022-11-10T10:08:45.600Z,12.46
2022-11-10T10:11:32.641Z,12.50
2022-11-10T10:14:20.439Z,12.52
2022-11-10T10:17:06.186Z,12.52
2022-11-10T10:20:10.537Z,12.60
2022-11-10T10:23:02.125Z,12.63
2022-11-10T10:25:29.214Z,12.65
2022-11-10T10:28:34.026Z,12.68
2022-11-10T10:31:15.238Z,12.71
2022-11-10T10:33:42.081Z,12.73
2022-11-10T10:36:15.390Z,12.76
2022-11-10T10:38:46.582Z,12.74
2022-11-10T10:41:24.581Z,12.83
2022-11-10T10:43:55.825Z,12.86
2022-11-10T10:46:35.672Z,12.89
2022-11-10T10:49:29.779Z,12.92
2022-11-10T10:52:11.469Z,12.95
2022-11-10T10:54:39.769Z,13.01
2022-11-10T10:57:25.588Z,13.03
2022-11-10T11:00:10.618Z,13.12
2022-11-10T11:02:38.670Z,13.13
2022-11-10T11:05:19.152Z,13.22
2022-11-10T11:07:58.627Z,13.30
2022-11-10T11:10:35.139Z,13.34
2022-11-10T11:13:25.959Z,13.39
2022-11-10T11:16:01.613Z,13.46
2022-11-10T11:18:31.726Z,13.68
2022-11-10T11:21:37.806Z,13.81
2022-11-10T11:24:16.267Z,13.78
2022-11-10T11:27:10.592Z,13.80
2022-11-10T11:30:08.591Z,13.68
2022-11-10T11:33:14.559Z,13.86
2022-11-10T11:36:03.371Z,13.94
2022-11-10T11:38:47.041Z,14.01
2022-11-10T11:41:37.261Z,14.10
2022-11-10T11:44:30.919Z,14.19
2022-11-10T11:47:15.660Z,14.24
2022-11-10T11:50:18.688Z,14.33
2022-11-10T11:53:44.688Z,14.41
2022-11-10T11:56:28.693Z,14.59
2022-11-10T11:59:20.326Z,14.62
2022-11-10T12:02:40.262Z,14.63
2022-11-10T12:05:37.570Z,14.60
2022-11-10T12:08:23.493Z,14.60
2022-11-10T12:11:05.521Z,14.61
2022-11-10T12:14:13.197Z,14.67
2022-11-10T12:16:47.270Z,14.72
2022-11-10T12:20:11.388Z,14.73
2022-11-10T12:23:29.439Z,14.84
2022-11-10T12:26:25.116Z,14.88
2022-11-10T12:29:18.152Z,14.91
2022-11-10T12:31:47.877Z,14.90
2022-11-10T12:34:43.778Z,14.86
2022-11-10T12:37:27.536Z,14.86
2022-11-10T12:40:16.218Z,14.84
2022-11-10T12:42:50.344Z,14.79
2022-11-10T12:45:53.452Z,14.78
2022-11-10T12:48:21.545Z,14.74
2022-11-10T12:51:20.101Z,14.79
2022-11-10T12:53:48.641Z,14.87
2022-11-10T12:56:23.530Z,14.86
2022-11-10T12:59:25.411Z,14.86
2022-11-10T13:02:02.318Z,14.90
2022-11-10T13:04:30.393Z,14.90
2022-11-10T13:07:01.661Z,14.90
2022-11-10T13:09:33.133Z,14.94
2022-11-10T13:12:21.578Z,14.92
2022-11-10T13:14:48.981Z,14.94
2022-11-10T13:17:28.148Z,14.94
2022-11-10T13:20:09.408Z,14.94
2022-11-10T13:22:44.915Z,14.94
2022-11-10T13:25:36.959Z,14.91
2022-11-10T13:28:05.164Z,14.89
2022-11-10T13:30:48.638Z,14.90
2022-11-10T13:34:10.972Z,14.99
2022-11-10T13:36:49.240Z,15.09
2022-11-10T13:39:32.275Z,15.09
2022-11-10T13:42:08.127Z,15.08
2022-11-10T13:44:42.219Z,15.07
2022-11-10T13:47:08.986Z,15.05
2022-11-10T13:50:03.513Z,15.13
2022-11-10T13:52:39.318Z,15.12
2022-11-10T13:55:40.421Z,15.18
2022-11-10T13:58:18.894Z,15.26
2022-11-10T14:00:51.284Z,15.25
2022-11-10T14:03:46.131Z,15.21
2022-11-10T14:06:48.811Z,15.18
2022-11-10T14:09:33.417Z,15.09
2022-11-10T14:12:14.223Z,15.12
2022-11-10T14:14:59.563Z,15.13
2022-11-10T14:17:32.637Z,15.11
2022-11-10T14:20:00.110Z,15.10
2022-11-10T14:22:43.112Z,15.09
2022-11-10T14:25:36.262Z,15.07
2022-11-10T14:28:27.135Z,14.96
2022-11-10T14:30:55.612Z,15.06
2022-11-10T14:33:23.999Z,15.01
2022-11-10T14:35:55.674Z,14.94
2022-11-10T14:38:29.246Z,15.03
2022-11-10T14:40:59.114Z,14.99
2022-11-10T14:43:32.405Z,14.98
2022-11-10T14:46:00.175Z,14.99
2022-11-10T14:48:30.120Z,15.06
2022-11-10T14:51:17.563Z,15.04
2022-11-10T14:53:50.466Z,14.95
2022-11-10T14:56:27.833Z,15.01
2022-11-10T14:58:55.826Z,14.99
2022-11-10T15:01:42.101Z,14.96
2022-11-10T15:04:11.956Z,14.94
2022-11-10T15:06:43.064Z,14.95
2022-11-10T15:09:29.403Z,14.94
2022-11-10T15:12:23.480Z,14.93
2022-11-10T15:15:00.207Z,14.93
2022-11-10T15:17:50.574Z,14.93
2022-11-10T15:20:58.636Z,14.92
2022-11-10T15:23:40.613Z,14.89
2022-11-10T15:26:22.351Z,14.87
2022-11-10T15:28:49.185Z,14.87
2022-11-10T15:31:33.290Z,14.84
2022-11-10T15:34:05.294Z,14.82
2022-11-10T15:36:36.188Z,14.81
2022-11-10T15:39:23.214Z,14.76
2022-11-10T15:41:57.237Z,14.74
2022-11-10T15:44:29.795Z,14.69
2022-11-10T15:46:58.983Z,14.65
2022-11-10T15:49:35.086Z,14.51
2022-11-10T15:52:21.756Z,14.46
2022-11-10T15:54:50.668Z,14.42
2022-11-10T15:57:19.207Z,14.40
2022-11-10T15:59:45.980Z,14.40
2022-11-10T16:02:25.110Z,14.13
2022-11-10T16:04:59.722Z,14.34
2022-11-10T16:07:26.866Z,14.30
2022-11-10T16:09:53.638Z,14.28
2022-11-10T16:12:22.506Z,14.23
2022-11-10T16:14:52.790Z,14.20
2022-11-10T16:17:19.707Z,14.07
2022-11-10T16:19:47.490Z,14.11
2022-11-10T16:22:14.754Z,14.10
2022-11-10T16:24:41.631Z,14.07
2022-11-10T16:27:13.303Z,14.00
2022-11-10T16:29:41.662Z,13.96
2022-11-10T16:32:11.465Z,13.85
2022-11-10T16:34:38.327Z,13.90
2022-11-10T16:37:05.281Z,13.83
2022-11-10T16:39:32.055Z,13.65
2022-11-10T16:41:58.869Z,13.73
2022-11-10T16:44:25.660Z,13.71
2022-11-10T16:46:56.676Z,13.63
2022-11-10T16:49:32.255Z,13.52
2022-11-10T16:51:59.282Z,13.47
2022-11-10T16:54:27.329Z,13.44
2022-11-10T16:56:54.141Z,13.39
2022-11-10T16:59:20.886Z,13.31
2022-11-10T17:01:48.681Z,13.26
2022-11-10T17:04:15.667Z,13.09
2022-11-10T17:06:43.215Z,13.16
2022-11-10T17:09:22.540Z,13.04
2022-11-10T17:11:49.887Z,13.02
2022-11-10T17:14:17.720Z,12.98
2022-11-10T17:16:46.398Z,12.92
2022-11-10T17:19:25.680Z,12.89
2022-11-10T17:21:54.097Z,12.68
2022-11-10T17:24:21.638Z,12.79
2022-11-10T17:26:49.572Z,12.65
2022-11-10T17:29:18.676Z,12.73
2022-11-10T17:31:45.620Z,12.64
2022-11-10T17:34:12.771Z,12.58
2022-11-10T17:36:40.056Z,12.59
2022-11-10T17:39:07.276Z,12.58
2022-11-10T17:41:34.224Z,12.48
2022-11-10T17:44:01.060Z,12.46
2022-11-10T17:46:27.842Z,12.39
2022-11-10T17:48:58.777Z,12.36
2022-11-10T17:51:28.527Z,12.34
2022-11-10T17:53:55.390Z,12.31
2022-11-10T17:56:22.156Z,12.26
2022-11-10T17:58:49.117Z,12.11
2022-11-10T18:01:19.771Z,12.07
2022-11-10T18:03:46.774Z,12.12
2022-11-10T18:06:15.317Z,12.17
2022-11-10T18:08:42.953Z,12.13
2022-11-10T18:11:16.516Z,12.10
2022-11-10T18:13:44.191Z,12.03
2022-11-10T18:16:14.575Z,12.00
2022-11-10T18:18:41.764Z,11.87
2022-11-10T18:21:09.533Z,11.92
2022-11-10T18:23:36.475Z,11.91
2022-11-10T18:26:08.357Z,11.86
2022-11-10T18:28:36.187Z,11.83
2022-11-10T18:31:12.500Z,11.81
2022-11-10T18:33:39.316Z,11.74
2022-11-10T18:36:06.903Z,11.58
2022-11-10T18:38:33.947Z,11.67
2022-11-10T18:41:23.599Z,11.63
2022-11-10T18:43:50.544Z,11.49
2022-11-10T18:46:17.368Z,11.50
2022-11-10T18:48:46.510Z,11.38
2022-11-10T18:51:14.114Z,11.38
2022-11-10T18:53:40.914Z,11.45
2022-11-10T18:56:07.908Z,11.40
2022-11-10T18:58:34.686Z,11.30
2022-11-10T19:01:10.156Z,11.36
2022-11-10T19:03:37.640Z,11.21
2022-11-10T19:06:05.406Z,11.25
2022-11-10T19:08:32.216Z,11.25
2022-11-10T19:10:59.014Z,11.25
2022-11-10T19:13:26.057Z,11.22
2022-11-10T19:15:55.587Z,11.18
2022-11-10T19:18:22.408Z,11.18
2022-11-10T19:20:49.196Z,11.09
2022-11-10T19:23:16.044Z,11.09
2022-11-10T19:25:42.809Z,11.06
2022-11-10T19:28:11.553Z,11.02
2022-11-10T19:30:39.458Z,10.96
2022-11-10T19:33:06.681Z,10.95
2022-11-10T19:35:33.429Z,10.91
2022-11-10T19:38:00.196Z,10.95
2022-11-10T19:40:26.955Z,10.90
2022-11-10T19:42:53.892Z,10.84
2022-11-10T19:45:20.668Z,10.82
2022-11-10T19:47:47.417Z,10.77
2022-11-10T19:50:14.158Z,10.80
2022-11-10T19:52:41.002Z,10.83
2022-11-10T19:55:08.066Z,10.70
2022-11-10T19:57:34.812Z,10.68
2022-11-10T20:00:01.622Z,10.60
2022-11-10T20:02:28.807Z,10.69
2022-11-10T20:05:13.490Z,10.60
2022-11-10T20:07:58.632Z,10.58
2022-11-10T20:10:25.421Z,10.61
2022-11-10T20:12:52.580Z,10.47
2022-11-10T20:15:19.464Z,10.53
2022-11-10T20:17:46.248Z,10.51
2022-11-10T20:20:13.551Z,10.44
2022-11-10T20:22:40.404Z,10.44
2022-11-10T20:25:07.780Z,10.35
2022-11-10T20:27:34.537Z,10.37
2022-11-10T20:30:01.275Z,10.35
2022-11-10T20:32:28.305Z,10.39
2022-11-10T20:34:55.085Z,10.33
2022-11-10T20:37:21.891Z,10.31
2022-11-10T20:39:48.641Z,10.26
2022-11-10T20:42:15.473Z,10.15
2022-11-10T20:44:42.264Z,10.19
2022-11-10T20:47:09.204Z,10.21
2022-11-10T20:49:35.979Z,10.20
2022-11-10T20:52:03.204Z,10.22
2022-11-10T20:54:30.221Z,9.99
2022-11-10T20:56:57.051Z,10.10
2022-11-10T20:59:23.935Z,10.07
2022-11-10T21:01:50.820Z,10.00
2022-11-10T21:04:18.163Z,9.98
2022-11-10T21:06:45.099Z,9.92
2022-11-10T21:09:12.441Z,10.00
2022-11-10T21:11:57.760Z,10.00
2022-11-10T21:14:24.516Z,9.97
2022-11-10T21:16:51.330Z,9.94
2022-11-10T21:19:18.120Z,9.89
2022-11-10T21:21:44.891Z,9.88
2022-11-10T21:24:12.221Z,9.82
2022-11-10T21:26:39.011Z,9.80
2022-11-10T21:29:07.781Z,9.83
2022-11-10T21:31:34.624Z,9.77
2022-11-10T21:34:01.508Z,9.75
2022-11-10T21:36:29.466Z,9.69
2022-11-10T21:38:58.432Z,9.74
2022-11-10T21:41:26.326Z,9.71
2022-11-10T21:43:53.114Z,9.69
2022-11-10T21:46:20.824Z,9.72
2022-11-10T21:48:50.141Z,9.71
2022-11-10T21:51:17.458Z,9.73
2022-11-10T21:53:44.203Z,9.60
2022-11-10T21:56:12.300Z,9.70
2022-11-10T21:58:39.792Z,9.59
2022-11-10T22:01:16.646Z,9.71
2022-11-10T22:03:43.825Z,9.53
2022-11-10T22:06:16.379Z,9.64
2022-11-10T22:08:45.476Z,9.66
2022-11-10T22:11:34.191Z,9.59
2022-11-10T22:14:19.976Z,9.51
2022-11-10T22:17:09.768Z,9.53
2022-11-10T22:19:37.492Z,9.49
2022-11-10T22:22:04.615Z,9.49
2022-11-10T22:24:31.958Z,9.46
2022-11-10T22:27:01.692Z,9.43
2022-11-10T22:29:32.248Z,9.40
2022-11-10T22:32:02.866Z,9.47
2022-11-10T22:34:29.851Z,9.45
2022-11-10T22:36:57.041Z,9.39
2022-11-10T22:39:43.769Z,9.40
2022-11-10T22:42:31.122Z,9.42
2022-11-10T22:44:58.020Z,9.41
2022-11-10T22:47:24.770Z,9.36
2022-11-10T22:49:51.530Z,9.31
2022-11-10T22:52:18.303Z,9.30
2022-11-10T22:54:45.056Z,9.29
2022-11-10T22:57:11.836Z,9.27
2022-11-10T22:59:38.638Z,9.30
2022-11-10T23:02:05.492Z,9.29
2022-11-10T23:04:32.231Z,9.23
2022-11-10T23:06:59.108Z,9.19
2022-11-10T23:09:25.894Z,9.25
2022-11-10T23:11:52.789Z,9.22
2022-11-10T23:14:19.575Z,9.21
2022-11-10T23:16:46.360Z,9.19
2022-11-10T23:19:13.225Z,9.16
2022-11-10T23:21:40.014Z,9.16
2022-11-10T23:24:07.140Z,9.11
2022-11-10T23:26:34.755Z,9.11
2022-11-10T23:29:01.567Z,9.08
2022-11-10T23:31:28.625Z,9.08
2022-11-10T23:33:57.645Z,9.01
2022-11-10T23:36:25.980Z,9.06
2022-11-10T23:38:54.375Z,9.03
2022-11-10T23:41:26.117Z,9.01
2022-11-10T23:43:53.748Z,9.08
2022-11-10T23:46:20.549Z,9.01
2022-11-10T23:48:47.384Z,9.00
2022-11-10T23:51:14.981Z,8.97
2022-11-10T23:53:42.367Z,8.86
2022-11-10T23:56:14.111Z,8.93
2022-11-10T23:58:41.477Z,8.88
